sensor_id;sensor_type;location;lat;lon;timestamp;temperature;humidity
5806;DHT22;2929;50.810;8.342;2023-03-17T00:01:10;3.70;99.90
5806;DHT22;2929;50.810;8.342;2023-03-17T00:03:39;3.70;99.90
5806;DHT22;2929;50.810;8.342;2023-03-17T00:06:14;3.70;99.90
5806;DHT22;2929;50.810;8.342;2023-03-17T00:08:42;3.70;99.90
5806;DHT22;2929;50.810;8.342;2023-03-17T00:11:12;3.70;99.90
5806;DHT22;2929;50.810;8.342;2023-03-17T00:13:41;3.70;99.90
5806;DHT22;2929;50.810;8.342;2023-03-17T00:16:12;3.90;99.90
5806;DHT22;2929;50.810;8.342;2023-03-17T00:18:41;3.80;99.90
5806;DHT22;2929;50.810;8.342;2023-03-17T00:21:11;3.50;99.90
5806;DHT22;2929;50.810;8.342;2023-03-17T00:23:39;3.50;99.90
5806;DHT22;2929;50.810;8.342;2023-03-17T00:26:07;3.50;99.90
5806;DHT22;2929;50.810;8.342;2023-03-17T00:28:36;3.60;99.90
5806;DHT22;2929;50.810;8.342;2023-03-17T00:31:11;3.70;99.90
5806;DHT22;2929;50.810;8.342;2023-03-17T00:33:39;3.70;99.90
5806;DHT22;2929;50.810;8.342;2023-03-17T00:36:11;3.80;99.90
5806;DHT22;2929;50.810;8.342;2023-03-17T00:38:39;3.70;99.90
5806;DHT22;2929;50.810;8.342;2023-03-17T00:41:07;3.60;99.90
5806;DHT22;2929;50.810;8.342;2023-03-17T00:43:36;3.50;99.90
5806;DHT22;2929;50.810;8.342;2023-03-17T00:46:10;3.50;99.90
5806;DHT22;2929;50.810;8.342;2023-03-17T00:48:38;3.50;99.90
5806;DHT22;2929;50.810;8.342;2023-03-17T00:51:06;3.50;99.90
5806;DHT22;2929;50.810;8.342;2023-03-17T00:53:33;3.50;99.90
5806;DHT22;2929;50.810;8.342;2023-03-17T00:56:01;3.50;99.90
5806;DHT22;2929;50.810;8.342;2023-03-17T00:58:30;3.50;99.90
5806;DHT22;2929;50.810;8.342;2023-03-17T01:01:00;3.60;99.90
5806;DHT22;2929;50.810;8.342;2023-03-17T01:03:28;3.70;99.90
5806;DHT22;2929;50.810;8.342;2023-03-17T01:05:55;3.60;99.90
5806;DHT22;2929;50.810;8.342;2023-03-17T01:08:23;3.60;99.90
5806;DHT22;2929;50.810;8.342;2023-03-17T01:10:51;3.50;99.90
5806;DHT22;2929;50.810;8.342;2023-03-17T01:13:19;3.40;99.90
5806;DHT22;2929;50.810;8.342;2023-03-17T01:15:47;3.40;99.90
5806;DHT22;2929;50.810;8.342;2023-03-17T01:18:20;3.40;99.90
5806;DHT22;2929;50.810;8.342;2023-03-17T01:20:47;3.30;99.90
5806;DHT22;2929;50.810;8.342;2023-03-17T01:23:15;3.30;99.90
5806;DHT22;2929;50.810;8.342;2023-03-17T01:25:43;3.40;99.90
5806;DHT22;2929;50.810;8.342;2023-03-17T01:28:12;3.50;99.90
5806;DHT22;2929;50.810;8.342;2023-03-17T01:30:40;3.50;99.90
5806;DHT22;2929;50.810;8.342;2023-03-17T01:33:10;3.50;99.90
5806;DHT22;2929;50.810;8.342;2023-03-17T01:35:39;3.50;99.90
5806;DHT22;2929;50.810;8.342;2023-03-17T01:38:08;3.60;99.90
5806;DHT22;2929;50.810;8.342;2023-03-17T01:40:37;3.40;99.90
5806;DHT22;2929;50.810;8.342;2023-03-17T01:43:17;3.30;99.90
5806;DHT22;2929;50.810;8.342;2023-03-17T01:46:12;3.30;99.90
5806;DHT22;2929;50.810;8.342;2023-03-17T01:48:41;3.10;99.90
5806;DHT22;2929;50.810;8.342;2023-03-17T01:51:13;3.00;99.90
5806;DHT22;2929;50.810;8.342;2023-03-17T01:53:43;3.00;99.90
5806;DHT22;2929;50.810;8.342;2023-03-17T01:56:12;3.00;99.90
5806;DHT22;2929;50.810;8.342;2023-03-17T01:58:40;3.00;99.90
5806;DHT22;2929;50.810;8.342;2023-03-17T02:01:08;2.90;99.90
5806;DHT22;2929;50.810;8.342;2023-03-17T02:03:35;2.80;99.90
5806;DHT22;2929;50.810;8.342;2023-03-17T02:06:04;2.80;99.90
5806;DHT22;2929;50.810;8.342;2023-03-17T02:08:35;2.80;99.90
5806;DHT22;2929;50.810;8.342;2023-03-17T02:11:04;2.70;99.90
5806;DHT22;2929;50.810;8.342;2023-03-17T02:13:32;2.60;99.90
5806;DHT22;2929;50.810;8.342;2023-03-17T02:15:59;2.60;99.90
5806;DHT22;2929;50.810;8.342;2023-03-17T02:18:26;2.60;99.90
5806;DHT22;2929;50.810;8.342;2023-03-17T02:21:34;2.70;99.90
5806;DHT22;2929;50.810;8.342;2023-03-17T02:24:06;2.60;99.90
5806;DHT22;2929;50.810;8.342;2023-03-17T02:26:35;2.50;99.90
5806;DHT22;2929;50.810;8.342;2023-03-17T02:29:03;2.40;99.90
5806;DHT22;2929;50.810;8.342;2023-03-17T02:31:32;2.30;99.90
5806;DHT22;2929;50.810;8.342;2023-03-17T02:34:00;2.20;99.90
5806;DHT22;2929;50.810;8.342;2023-03-17T02:36:27;2.20;99.90
5806;DHT22;2929;50.810;8.342;2023-03-17T02:38:56;2.20;99.90
5806;DHT22;2929;50.810;8.342;2023-03-17T02:41:23;2.10;99.90
5806;DHT22;2929;50.810;8.342;2023-03-17T02:43:50;2.10;99.90
5806;DHT22;2929;50.810;8.342;2023-03-17T02:46:19;2.00;99.90
5806;DHT22;2929;50.810;8.342;2023-03-17T02:48:46;2.00;99.90
5806;DHT22;2929;50.810;8.342;2023-03-17T02:51:14;2.00;99.90
5806;DHT22;2929;50.810;8.342;2023-03-17T02:53:41;2.00;99.90
5806;DHT22;2929;50.810;8.342;2023-03-17T02:56:10;1.90;99.90
5806;DHT22;2929;50.810;8.342;2023-03-17T02:58:37;1.80;99.90
5806;DHT22;2929;50.810;8.342;2023-03-17T03:01:04;1.90;99.90
5806;DHT22;2929;50.810;8.342;2023-03-17T03:03:31;1.90;99.90
5806;DHT22;2929;50.810;8.342;2023-03-17T03:05:58;1.90;99.90
5806;DHT22;2929;50.810;8.342;2023-03-17T03:08:25;1.90;99.90
5806;DHT22;2929;50.810;8.342;2023-03-17T03:10:52;1.80;99.90
5806;DHT22;2929;50.810;8.342;2023-03-17T03:13:21;1.80;99.90
5806;DHT22;2929;50.810;8.342;2023-03-17T03:15:48;1.60;99.90
5806;DHT22;2929;50.810;8.342;2023-03-17T03:18:16;1.50;99.90
5806;DHT22;2929;50.810;8.342;2023-03-17T03:20:44;1.50;99.90
5806;DHT22;2929;50.810;8.342;2023-03-17T03:23:12;1.60;99.90
5806;DHT22;2929;50.810;8.342;2023-03-17T03:25:39;1.40;99.90
5806;DHT22;2929;50.810;8.342;2023-03-17T03:28:07;1.40;99.90
5806;DHT22;2929;50.810;8.342;2023-03-17T03:30:36;1.40;99.90
5806;DHT22;2929;50.810;8.342;2023-03-17T03:33:04;1.40;99.90
5806;DHT22;2929;50.810;8.342;2023-03-17T03:35:32;1.40;99.90
5806;DHT22;2929;50.810;8.342;2023-03-17T03:38:00;1.30;99.90
5806;DHT22;2929;50.810;8.342;2023-03-17T03:40:27;1.20;99.90
5806;DHT22;2929;50.810;8.342;2023-03-17T03:42:54;1.20;99.90
5806;DHT22;2929;50.810;8.342;2023-03-17T03:45:22;1.20;99.90
5806;DHT22;2929;50.810;8.342;2023-03-17T03:47:50;1.10;99.90
5806;DHT22;2929;50.810;8.342;2023-03-17T03:50:17;1.10;99.90
5806;DHT22;2929;50.810;8.342;2023-03-17T03:52:45;1.00;99.90
5806;DHT22;2929;50.810;8.342;2023-03-17T03:55:12;1.00;99.90
5806;DHT22;2929;50.810;8.342;2023-03-17T03:57:39;0.90;99.90
5806;DHT22;2929;50.810;8.342;2023-03-17T04:00:07;0.90;99.90
5806;DHT22;2929;50.810;8.342;2023-03-17T04:02:38;0.90;99.90
5806;DHT22;2929;50.810;8.342;2023-03-17T04:05:08;0.90;99.90
5806;DHT22;2929;50.810;8.342;2023-03-17T04:07:35;0.80;99.90
5806;DHT22;2929;50.810;8.342;2023-03-17T04:10:03;0.80;99.90
5806;DHT22;2929;50.810;8.342;2023-03-17T04:12:30;0.80;99.90
5806;DHT22;2929;50.810;8.342;2023-03-17T04:14:57;0.80;99.90
5806;DHT22;2929;50.810;8.342;2023-03-17T04:17:24;0.90;99.90
5806;DHT22;2929;50.810;8.342;2023-03-17T04:19:51;0.90;99.90
5806;DHT22;2929;50.810;8.342;2023-03-17T04:22:20;0.80;99.90
5806;DHT22;2929;50.810;8.342;2023-03-17T04:24:47;0.80;99.90
5806;DHT22;2929;50.810;8.342;2023-03-17T04:27:14;0.80;99.90
5806;DHT22;2929;50.810;8.342;2023-03-17T04:29:42;0.80;99.90
5806;DHT22;2929;50.810;8.342;2023-03-17T04:32:10;0.80;99.90
5806;DHT22;2929;50.810;8.342;2023-03-17T04:34:38;0.70;99.90
5806;DHT22;2929;50.810;8.342;2023-03-17T04:37:06;0.70;99.90
5806;DHT22;2929;50.810;8.342;2023-03-17T04:39:34;0.60;99.90
5806;DHT22;2929;50.810;8.342;2023-03-17T04:42:01;0.60;99.90
5806;DHT22;2929;50.810;8.342;2023-03-17T04:44:28;0.50;99.90
5806;DHT22;2929;50.810;8.342;2023-03-17T04:46:56;0.50;99.90
5806;DHT22;2929;50.810;8.342;2023-03-17T04:49:24;0.60;99.90
5806;DHT22;2929;50.810;8.342;2023-03-17T04:51:51;0.60;99.90
5806;DHT22;2929;50.810;8.342;2023-03-17T04:54:18;0.50;99.90
5806;DHT22;2929;50.810;8.342;2023-03-17T04:56:47;0.50;99.90
5806;DHT22;2929;50.810;8.342;2023-03-17T04:59:14;0.50;99.90
5806;DHT22;2929;50.810;8.342;2023-03-17T05:01:41;0.40;99.90
5806;DHT22;2929;50.810;8.342;2023-03-17T05:04:09;0.20;99.90
5806;DHT22;2929;50.810;8.342;2023-03-17T05:06:36;0.10;99.90
5806;DHT22;2929;50.810;8.342;2023-03-17T05:09:03;0.10;99.90
5806;DHT22;2929;50.810;8.342;2023-03-17T05:11:30;0.00;99.90
5806;DHT22;2929;50.810;8.342;2023-03-17T05:13:59;0.10;99.90
5806;DHT22;2929;50.810;8.342;2023-03-17T05:16:26;0.10;99.90
5806;DHT22;2929;50.810;8.342;2023-03-17T05:18:53;0.30;99.90
5806;DHT22;2929;50.810;8.342;2023-03-17T05:21:21;0.30;99.90
5806;DHT22;2929;50.810;8.342;2023-03-17T05:23:48;0.30;99.90
5806;DHT22;2929;50.810;8.342;2023-03-17T05:26:15;0.30;99.90
5806;DHT22;2929;50.810;8.342;2023-03-17T05:28:43;0.20;99.90
5806;DHT22;2929;50.810;8.342;2023-03-17T05:31:11;0.20;99.90
5806;DHT22;2929;50.810;8.342;2023-03-17T05:33:38;0.10;99.90
5806;DHT22;2929;50.810;8.342;2023-03-17T05:36:06;0.10;99.90
5806;DHT22;2929;50.810;8.342;2023-03-17T05:38:33;0.10;99.90
5806;DHT22;2929;50.810;8.342;2023-03-17T05:41:01;0.00;99.90
5806;DHT22;2929;50.810;8.342;2023-03-17T05:43:29;0.10;99.90
5806;DHT22;2929;50.810;8.342;2023-03-17T05:45:56;0.00;99.90
5806;DHT22;2929;50.810;8.342;2023-03-17T05:48:24;0.00;99.90
5806;DHT22;2929;50.810;8.342;2023-03-17T05:50:52;0.00;99.90
5806;DHT22;2929;50.810;8.342;2023-03-17T05:53:19;0.00;99.90
5806;DHT22;2929;50.810;8.342;2023-03-17T05:55:47;-0.10;99.90
5806;DHT22;2929;50.810;8.342;2023-03-17T05:58:14;-0.10;99.90
5806;DHT22;2929;50.810;8.342;2023-03-17T06:00:42;-0.20;99.90
5806;DHT22;2929;50.810;8.342;2023-03-17T06:03:09;-0.10;99.90
5806;DHT22;2929;50.810;8.342;2023-03-17T06:05:38;0.00;99.90
5806;DHT22;2929;50.810;8.342;2023-03-17T06:08:05;0.10;99.90
5806;DHT22;2929;50.810;8.342;2023-03-17T06:10:32;0.10;99.90
5806;DHT22;2929;50.810;8.342;2023-03-17T06:13:00;0.10;99.90
5806;DHT22;2929;50.810;8.342;2023-03-17T06:15:27;0.20;99.90
5806;DHT22;2929;50.810;8.342;2023-03-17T06:17:54;0.10;99.90
5806;DHT22;2929;50.810;8.342;2023-03-17T06:20:21;0.10;99.90
5806;DHT22;2929;50.810;8.342;2023-03-17T06:22:49;0.20;99.90
5806;DHT22;2929;50.810;8.342;2023-03-17T06:25:17;0.30;99.90
5806;DHT22;2929;50.810;8.342;2023-03-17T06:27:44;0.20;99.90
5806;DHT22;2929;50.810;8.342;2023-03-17T06:30:11;0.10;99.90
5806;DHT22;2929;50.810;8.342;2023-03-17T06:32:38;0.20;99.90
5806;DHT22;2929;50.810;8.342;2023-03-17T06:35:09;0.30;99.90
5806;DHT22;2929;50.810;8.342;2023-03-17T06:37:40;0.30;99.90
5806;DHT22;2929;50.810;8.342;2023-03-17T06:40:15;0.30;99.90
5806;DHT22;2929;50.810;8.342;2023-03-17T06:42:43;0.40;99.90
5806;DHT22;2929;50.810;8.342;2023-03-17T06:45:10;0.40;99.90
5806;DHT22;2929;50.810;8.342;2023-03-17T06:47:38;0.40;99.90
5806;DHT22;2929;50.810;8.342;2023-03-17T06:50:07;0.40;99.90
5806;DHT22;2929;50.810;8.342;2023-03-17T06:52:36;0.50;99.90
5806;DHT22;2929;50.810;8.342;2023-03-17T06:55:04;0.50;99.90
5806;DHT22;2929;50.810;8.342;2023-03-17T06:57:33;0.60;99.90
5806;DHT22;2929;50.810;8.342;2023-03-17T07:00:01;0.60;99.90
5806;DHT22;2929;50.810;8.342;2023-03-17T07:02:28;0.70;99.90
5806;DHT22;2929;50.810;8.342;2023-03-17T07:04:55;0.80;99.90
5806;DHT22;2929;50.810;8.342;2023-03-17T07:07:23;0.90;99.90
5806;DHT22;2929;50.810;8.342;2023-03-17T07:09:50;0.90;99.90
5806;DHT22;2929;50.810;8.342;2023-03-17T07:12:18;1.00;99.90
5806;DHT22;2929;50.810;8.342;2023-03-17T07:14:46;1.10;99.90
5806;DHT22;2929;50.810;8.342;2023-03-17T07:17:14;1.20;99.90
5806;DHT22;2929;50.810;8.342;2023-03-17T07:19:41;1.30;99.90
5806;DHT22;2929;50.810;8.342;2023-03-17T07:22:09;1.50;99.90
5806;DHT22;2929;50.810;8.342;2023-03-17T07:24:38;1.60;99.90
5806;DHT22;2929;50.810;8.342;2023-03-17T07:27:06;1.70;99.90
5806;DHT22;2929;50.810;8.342;2023-03-17T07:29:34;1.80;99.90
5806;DHT22;2929;50.810;8.342;2023-03-17T07:32:03;1.90;99.90
5806;DHT22;2929;50.810;8.342;2023-03-17T07:34:32;2.00;99.90
5806;DHT22;2929;50.810;8.342;2023-03-17T07:36:59;2.10;99.90
5806;DHT22;2929;50.810;8.342;2023-03-17T07:39:26;2.20;99.90
5806;DHT22;2929;50.810;8.342;2023-03-17T07:41:54;2.30;99.90
5806;DHT22;2929;50.810;8.342;2023-03-17T07:44:21;2.40;99.90
5806;DHT22;2929;50.810;8.342;2023-03-17T07:46:49;2.40;99.90
5806;DHT22;2929;50.810;8.342;2023-03-17T07:49:19;2.50;99.90
5806;DHT22;2929;50.810;8.342;2023-03-17T07:51:46;2.70;99.90
5806;DHT22;2929;50.810;8.342;2023-03-17T07:54:14;2.90;99.90
5806;DHT22;2929;50.810;8.342;2023-03-17T07:56:41;3.00;99.90
5806;DHT22;2929;50.810;8.342;2023-03-17T07:59:08;3.10;99.90
5806;DHT22;2929;50.810;8.342;2023-03-17T08:01:36;3.20;99.90
5806;DHT22;2929;50.810;8.342;2023-03-17T08:04:04;3.30;99.90
5806;DHT22;2929;50.810;8.342;2023-03-17T08:06:33;3.50;99.90
5806;DHT22;2929;50.810;8.342;2023-03-17T08:09:02;3.70;99.90
5806;DHT22;2929;50.810;8.342;2023-03-17T08:11:29;3.70;99.90
5806;DHT22;2929;50.810;8.342;2023-03-17T08:13:56;3.80;99.90
5806;DHT22;2929;50.810;8.342;2023-03-17T08:16:23;4.00;99.90
5806;DHT22;2929;50.810;8.342;2023-03-17T08:18:50;4.10;99.90
5806;DHT22;2929;50.810;8.342;2023-03-17T08:21:17;4.30;99.90
5806;DHT22;2929;50.810;8.342;2023-03-17T08:23:46;4.40;99.90
5806;DHT22;2929;50.810;8.342;2023-03-17T08:26:14;4.60;99.90
5806;DHT22;2929;50.810;8.342;2023-03-17T08:28:43;4.70;99.90
5806;DHT22;2929;50.810;8.342;2023-03-17T08:31:11;4.90;99.90
5806;DHT22;2929;50.810;8.342;2023-03-17T08:33:39;5.00;99.90
5806;DHT22;2929;50.810;8.342;2023-03-17T08:36:08;5.10;99.90
5806;DHT22;2929;50.810;8.342;2023-03-17T08:38:36;5.30;99.90
5806;DHT22;2929;50.810;8.342;2023-03-17T08:41:06;5.50;99.90
5806;DHT22;2929;50.810;8.342;2023-03-17T08:43:35;5.70;99.90
5806;DHT22;2929;50.810;8.342;2023-03-17T08:46:05;5.90;99.90
5806;DHT22;2929;50.810;8.342;2023-03-17T08:48:32;6.10;99.90
5806;DHT22;2929;50.810;8.342;2023-03-17T08:51:00;6.20;99.90
5806;DHT22;2929;50.810;8.342;2023-03-17T08:53:28;6.30;99.90
5806;DHT22;2929;50.810;8.342;2023-03-17T08:55:55;6.40;99.90
5806;DHT22;2929;50.810;8.342;2023-03-17T08:58:25;6.40;99.90
5806;DHT22;2929;50.810;8.342;2023-03-17T09:00:53;6.40;99.90
5806;DHT22;2929;50.810;8.342;2023-03-17T09:03:20;6.50;99.90
5806;DHT22;2929;50.810;8.342;2023-03-17T09:05:47;6.60;99.90
5806;DHT22;2929;50.810;8.342;2023-03-17T09:08:14;6.60;99.90
5806;DHT22;2929;50.810;8.342;2023-03-17T09:10:42;6.70;99.90
5806;DHT22;2929;50.810;8.342;2023-03-17T09:13:09;6.80;99.90
5806;DHT22;2929;50.810;8.342;2023-03-17T09:15:37;7.00;99.90
5806;DHT22;2929;50.810;8.342;2023-03-17T09:18:06;7.10;99.90
5806;DHT22;2929;50.810;8.342;2023-03-17T09:20:34;7.20;99.90
5806;DHT22;2929;50.810;8.342;2023-03-17T09:23:05;7.20;99.90
5806;DHT22;2929;50.810;8.342;2023-03-17T09:25:34;7.30;99.90
5806;DHT22;2929;50.810;8.342;2023-03-17T09:28:02;7.60;99.90
5806;DHT22;2929;50.810;8.342;2023-03-17T09:30:29;8.00;99.90
5806;DHT22;2929;50.810;8.342;2023-03-17T09:32:58;8.20;99.90
5806;DHT22;2929;50.810;8.342;2023-03-17T09:35:26;8.40;99.90
5806;DHT22;2929;50.810;8.342;2023-03-17T09:37:54;8.70;99.90
5806;DHT22;2929;50.810;8.342;2023-03-17T09:40:28;8.80;99.90
5806;DHT22;2929;50.810;8.342;2023-03-17T09:43:03;9.10;99.90
5806;DHT22;2929;50.810;8.342;2023-03-17T09:45:34;9.10;99.90
5806;DHT22;2929;50.810;8.342;2023-03-17T09:50:52;9.40;99.90
5806;DHT22;2929;50.810;8.342;2023-03-17T09:53:23;9.50;99.90
5806;DHT22;2929;50.810;8.342;2023-03-17T09:55:54;9.50;99.90
5806;DHT22;2929;50.810;8.342;2023-03-17T09:58:28;9.70;99.90
5806;DHT22;2929;50.810;8.342;2023-03-17T10:00:57;9.70;99.90
5806;DHT22;2929;50.810;8.342;2023-03-17T10:03:26;9.90;99.90
5806;DHT22;2929;50.810;8.342;2023-03-17T10:05:58;10.10;99.90
5806;DHT22;2929;50.810;8.342;2023-03-17T10:08:37;10.20;99.90
5806;DHT22;2929;50.810;8.342;2023-03-17T10:11:14;10.30;99.90
5806;DHT22;2929;50.810;8.342;2023-03-17T10:13:49;10.30;99.90
5806;DHT22;2929;50.810;8.342;2023-03-17T10:16:22;10.30;99.90
5806;DHT22;2929;50.810;8.342;2023-03-17T10:18:57;10.40;99.90
5806;DHT22;2929;50.810;8.342;2023-03-17T10:21:28;10.60;99.90
5806;DHT22;2929;50.810;8.342;2023-03-17T10:23:58;10.60;99.90
5806;DHT22;2929;50.810;8.342;2023-03-17T10:26:29;10.80;99.90
5806;DHT22;2929;50.810;8.342;2023-03-17T10:28:57;10.90;99.90
5806;DHT22;2929;50.810;8.342;2023-03-17T10:31:30;11.00;99.90
5806;DHT22;2929;50.810;8.342;2023-03-17T10:34:14;11.10;99.90
5806;DHT22;2929;50.810;8.342;2023-03-17T10:36:43;11.10;99.90
5806;DHT22;2929;50.810;8.342;2023-03-17T10:39:15;11.30;99.90
5806;DHT22;2929;50.810;8.342;2023-03-17T10:41:50;11.40;99.90
5806;DHT22;2929;50.810;8.342;2023-03-17T10:44:34;11.60;99.90
5806;DHT22;2929;50.810;8.342;2023-03-17T10:47:03;11.50;99.90
5806;DHT22;2929;50.810;8.342;2023-03-17T10:49:35;11.50;99.90
5806;DHT22;2929;50.810;8.342;2023-03-17T10:52:05;11.50;99.90
5806;DHT22;2929;50.810;8.342;2023-03-17T10:54:34;11.50;99.90
5806;DHT22;2929;50.810;8.342;2023-03-17T10:57:05;11.60;99.90
5806;DHT22;2929;50.810;8.342;2023-03-17T10:59:40;11.50;99.90
5806;DHT22;2929;50.810;8.342;2023-03-17T11:02:18;11.50;99.90
5806;DHT22;2929;50.810;8.342;2023-03-17T11:04:47;11.50;99.90
5806;DHT22;2929;50.810;8.342;2023-03-17T11:07:16;11.60;99.90
5806;DHT22;2929;50.810;8.342;2023-03-17T11:09:47;11.70;99.90
5806;DHT22;2929;50.810;8.342;2023-03-17T11:12:23;11.70;99.90
5806;DHT22;2929;50.810;8.342;2023-03-17T11:14:55;11.90;99.90
5806;DHT22;2929;50.810;8.342;2023-03-17T11:17:37;12.00;99.90
5806;DHT22;2929;50.810;8.342;2023-03-17T11:20:37;11.90;99.90
5806;DHT22;2929;50.810;8.342;2023-03-17T11:23:11;11.90;99.90
5806;DHT22;2929;50.810;8.342;2023-03-17T11:25:44;11.80;99.90
5806;DHT22;2929;50.810;8.342;2023-03-17T11:28:20;11.80;99.90
5806;DHT22;2929;50.810;8.342;2023-03-17T11:30:56;11.90;99.90
5806;DHT22;2929;50.810;8.342;2023-03-17T11:33:39;11.90;99.90
5806;DHT22;2929;50.810;8.342;2023-03-17T11:36:21;11.90;99.90
5806;DHT22;2929;50.810;8.342;2023-03-17T11:38:58;11.90;99.90
5806;DHT22;2929;50.810;8.342;2023-03-17T11:41:40;11.90;99.90
5806;DHT22;2929;50.810;8.342;2023-03-17T11:47:26;11.80;99.90
5806;DHT22;2929;50.810;8.342;2023-03-17T11:50:00;11.90;99.90
5806;DHT22;2929;50.810;8.342;2023-03-17T11:52:35;12.00;99.90
5806;DHT22;2929;50.810;8.342;2023-03-17T11:55:11;12.00;99.90
5806;DHT22;2929;50.810;8.342;2023-03-17T11:57:45;12.00;99.90
5806;DHT22;2929;50.810;8.342;2023-03-17T12:00:19;12.10;99.90
5806;DHT22;2929;50.810;8.342;2023-03-17T12:02:53;12.20;99.90
5806;DHT22;2929;50.810;8.342;2023-03-17T12:05:22;12.20;99.90
5806;DHT22;2929;50.810;8.342;2023-03-17T12:07:55;12.20;99.90
5806;DHT22;2929;50.810;8.342;2023-03-17T12:10:24;12.30;99.90
5806;DHT22;2929;50.810;8.342;2023-03-17T12:12:56;12.30;99.90
5806;DHT22;2929;50.810;8.342;2023-03-17T12:15:29;12.30;99.90
5806;DHT22;2929;50.810;8.342;2023-03-17T12:18:01;12.30;99.90
5806;DHT22;2929;50.810;8.342;2023-03-17T12:20:39;12.40;99.90
5806;DHT22;2929;50.810;8.342;2023-03-17T12:23:13;12.40;99.90
5806;DHT22;2929;50.810;8.342;2023-03-17T12:25:50;12.20;99.90
5806;DHT22;2929;50.810;8.342;2023-03-17T12:28:23;12.30;99.90
5806;DHT22;2929;50.810;8.342;2023-03-17T12:30:54;12.30;99.90
5806;DHT22;2929;50.810;8.342;2023-03-17T12:33:26;12.30;99.90
5806;DHT22;2929;50.810;8.342;2023-03-17T12:35:55;12.40;99.90
5806;DHT22;2929;50.810;8.342;2023-03-17T12:38:30;12.40;99.90
5806;DHT22;2929;50.810;8.342;2023-03-17T12:41:22;12.50;99.90
5806;DHT22;2929;50.810;8.342;2023-03-17T12:44:02;12.50;99.90
5806;DHT22;2929;50.810;8.342;2023-03-17T12:46:58;12.60;99.90
5806;DHT22;2929;50.810;8.342;2023-03-17T12:50:08;12.60;99.90
5806;DHT22;2929;50.810;8.342;2023-03-17T12:52:49;12.80;99.90
5806;DHT22;2929;50.810;8.342;2023-03-17T12:55:25;13.20;99.90
5806;DHT22;2929;50.810;8.342;2023-03-17T12:57:59;13.50;99.90
5806;DHT22;2929;50.810;8.342;2023-03-17T13:00:29;13.50;99.90
5806;DHT22;2929;50.810;8.342;2023-03-17T13:03:11;13.70;99.90
5806;DHT22;2929;50.810;8.342;2023-03-17T13:05:44;13.90;99.90
5806;DHT22;2929;50.810;8.342;2023-03-17T13:08:16;14.00;99.90
5806;DHT22;2929;50.810;8.342;2023-03-17T13:10:48;14.10;99.90
5806;DHT22;2929;50.810;8.342;2023-03-17T13:13:34;14.20;99.90
5806;DHT22;2929;50.810;8.342;2023-03-17T13:16:03;14.40;99.90
5806;DHT22;2929;50.810;8.342;2023-03-17T13:18:50;14.50;99.90
5806;DHT22;2929;50.810;8.342;2023-03-17T13:21:24;14.40;99.90
5806;DHT22;2929;50.810;8.342;2023-03-17T13:23:55;14.30;99.90
5806;DHT22;2929;50.810;8.342;2023-03-17T13:29:43;14.60;99.90
5806;DHT22;2929;50.810;8.342;2023-03-17T13:32:35;14.90;98.70
5806;DHT22;2929;50.810;8.342;2023-03-17T13:35:16;14.90;98.90
5806;DHT22;2929;50.810;8.342;2023-03-17T13:40:42;15.10;99.00
5806;DHT22;2929;50.810;8.342;2023-03-17T13:43:27;14.90;97.60
5806;DHT22;2929;50.810;8.342;2023-03-17T13:46:18;14.80;98.90
5806;DHT22;2929;50.810;8.342;2023-03-17T13:48:48;14.60;99.30
5806;DHT22;2929;50.810;8.342;2023-03-17T13:51:19;14.70;99.90
5806;DHT22;2929;50.810;8.342;2023-03-17T13:53:51;14.80;99.90
5806;DHT22;2929;50.810;8.342;2023-03-17T13:56:26;14.90;99.60
5806;DHT22;2929;50.810;8.342;2023-03-17T13:59:09;14.70;99.50
5806;DHT22;2929;50.810;8.342;2023-03-17T14:01:41;14.70;99.00
5806;DHT22;2929;50.810;8.342;2023-03-17T14:04:19;14.60;99.90
5806;DHT22;2929;50.810;8.342;2023-03-17T14:06:49;14.40;99.70
5806;DHT22;2929;50.810;8.342;2023-03-17T14:09:34;14.20;99.90
5806;DHT22;2929;50.810;8.342;2023-03-17T14:12:06;14.10;99.90
5806;DHT22;2929;50.810;8.342;2023-03-17T14:14:41;14.20;99.90
5806;DHT22;2929;50.810;8.342;2023-03-17T14:17:17;14.10;99.90
5806;DHT22;2929;50.810;8.342;2023-03-17T14:20:03;14.00;99.50
5806;DHT22;2929;50.810;8.342;2023-03-17T14:22:38;13.90;99.90
5806;DHT22;2929;50.810;8.342;2023-03-17T14:25:14;13.90;99.90
5806;DHT22;2929;50.810;8.342;2023-03-17T14:27:43;14.00;99.90
5806;DHT22;2929;50.810;8.342;2023-03-17T14:30:17;13.90;99.90
5806;DHT22;2929;50.810;8.342;2023-03-17T14:32:49;13.90;99.90
5806;DHT22;2929;50.810;8.342;2023-03-17T14:35:16;14.00;99.00
5806;DHT22;2929;50.810;8.342;2023-03-17T14:37:44;13.90;99.90
5806;DHT22;2929;50.810;8.342;2023-03-17T14:40:20;13.80;99.90
5806;DHT22;2929;50.810;8.342;2023-03-17T14:42:48;13.70;99.90
5806;DHT22;2929;50.810;8.342;2023-03-17T14:45:20;13.50;99.90
5806;DHT22;2929;50.810;8.342;2023-03-17T14:47:49;13.50;99.90
5806;DHT22;2929;50.810;8.342;2023-03-17T14:50:23;13.60;99.90
5806;DHT22;2929;50.810;8.342;2023-03-17T14:52:51;13.60;99.90
5806;DHT22;2929;50.810;8.342;2023-03-17T14:55:19;13.50;99.90
5806;DHT22;2929;50.810;8.342;2023-03-17T14:57:49;13.50;99.90
5806;DHT22;2929;50.810;8.342;2023-03-17T15:00:32;13.30;99.90
5806;DHT22;2929;50.810;8.342;2023-03-17T15:03:12;13.50;99.90
5806;DHT22;2929;50.810;8.342;2023-03-17T15:05:43;13.70;99.90
5806;DHT22;2929;50.810;8.342;2023-03-17T15:08:41;13.70;99.90
5806;DHT22;2929;50.810;8.342;2023-03-17T15:11:25;13.90;99.90
5806;DHT22;2929;50.810;8.342;2023-03-17T15:13:55;14.00;99.90
5806;DHT22;2929;50.810;8.342;2023-03-17T15:16:33;14.10;99.90
5806;DHT22;2929;50.810;8.342;2023-03-17T15:19:05;14.10;99.90
5806;DHT22;2929;50.810;8.342;2023-03-17T15:21:37;14.50;99.90
5806;DHT22;2929;50.810;8.342;2023-03-17T15:24:26;14.60;99.90
5806;DHT22;2929;50.810;8.342;2023-03-17T15:27:02;14.30;99.90
5806;DHT22;2929;50.810;8.342;2023-03-17T15:29:30;13.90;99.90
5806;DHT22;2929;50.810;8.342;2023-03-17T15:32:08;13.70;99.90
5806;DHT22;2929;50.810;8.342;2023-03-17T15:34:38;13.80;99.90
5806;DHT22;2929;50.810;8.342;2023-03-17T15:37:14;13.70;99.90
5806;DHT22;2929;50.810;8.342;2023-03-17T15:39:42;13.50;99.90
5806;DHT22;2929;50.810;8.342;2023-03-17T15:42:09;13.40;99.90
5806;DHT22;2929;50.810;8.342;2023-03-17T15:44:36;13.30;99.90
5806;DHT22;2929;50.810;8.342;2023-03-17T15:47:04;13.20;99.90
5806;DHT22;2929;50.810;8.342;2023-03-17T15:49:33;13.10;99.90
5806;DHT22;2929;50.810;8.342;2023-03-17T15:52:05;13.00;99.90
5806;DHT22;2929;50.810;8.342;2023-03-17T15:54:32;13.00;99.90
5806;DHT22;2929;50.810;8.342;2023-03-17T15:56:59;12.80;99.90
5806;DHT22;2929;50.810;8.342;2023-03-17T15:59:27;12.70;99.90
5806;DHT22;2929;50.810;8.342;2023-03-17T16:01:55;12.80;99.90
5806;DHT22;2929;50.810;8.342;2023-03-17T16:04:22;12.70;99.90
5806;DHT22;2929;50.810;8.342;2023-03-17T16:06:49;12.70;99.90
5806;DHT22;2929;50.810;8.342;2023-03-17T16:09:17;12.60;99.90
5806;DHT22;2929;50.810;8.342;2023-03-17T16:11:45;12.60;99.90
5806;DHT22;2929;50.810;8.342;2023-03-17T16:14:12;12.50;99.90
5806;DHT22;2929;50.810;8.342;2023-03-17T16:16:41;12.50;99.90
5806;DHT22;2929;50.810;8.342;2023-03-17T16:19:16;12.50;99.90
5806;DHT22;2929;50.810;8.342;2023-03-17T16:21:45;12.50;99.90
5806;DHT22;2929;50.810;8.342;2023-03-17T16:24:18;12.40;99.90
5806;DHT22;2929;50.810;8.342;2023-03-17T16:26:46;12.30;99.90
5806;DHT22;2929;50.810;8.342;2023-03-17T16:29:14;12.40;99.90
5806;DHT22;2929;50.810;8.342;2023-03-17T16:31:43;12.30;99.90
5806;DHT22;2929;50.810;8.342;2023-03-17T16:34:14;12.30;99.90
5806;DHT22;2929;50.810;8.342;2023-03-17T16:36:42;12.30;99.90
5806;DHT22;2929;50.810;8.342;2023-03-17T16:39:15;12.30;99.90
5806;DHT22;2929;50.810;8.342;2023-03-17T16:41:46;12.30;99.90
5806;DHT22;2929;50.810;8.342;2023-03-17T16:44:14;12.30;99.90
5806;DHT22;2929;50.810;8.342;2023-03-17T16:46:41;12.20;99.90